Time;durP1;ratioP1;P1;durP2;ratioP2;P2;SDS_P1;SDS_P2;PMS_P1;PMS_P2;Temp;Humidity;BMP_temperature;BMP_pressure;BME280_temperature;BME280_humidity;BME280_pressure;Samples;Min_cycle;Max_cycle;Signal;HPM_P1;HPM_P2
2023/01/08 03:30:29;;;;;;;4.28;2.00;;;;;;;;;;5052335;27;20431;-75
2023/01/08 03:32:58;;;;;;;4.55;2.00;;;;;;;;;;4994830;28;20072;-74
2023/01/08 03:35:26;;;;;;;3.60;1.50;;;;;;;;;;5006396;28;20092;-72
2023/01/08 03:37:56;;;;;;;3.33;1.40;;;;;;;;;;4982051;28;20528;-71
2023/01/08 03:40:24;;;;;;;5.95;1.60;;;;;;;;;;5017532;28;20061;-74
2023/01/08 03:42:51;;;;;;;6.95;1.73;;;;;;;;;;4995790;28;20076;-71
2023/01/08 03:45:18;;;;;;;3.42;1.58;;;;;;;;;;5002490;28;20053;-73
2023/01/08 03:47:47;;;;;;;4.35;1.42;;;;;;;;;;5005032;28;20200;-71
2023/01/08 03:50:13;;;;;;;;;;;;;;;;;;5016509;28;20148;-74
2023/01/08 03:52:40;;;;;;;6.72;2.35;;;;;;;;;;5007762;28;19974;-74
2023/01/08 03:55:06;;;;;;;4.68;1.52;;;;;;;;;;5011369;28;20065;-73
2023/01/08 03:57:33;;;;;;;3.90;1.38;;;;;;;;;;5024181;28;20267;-72
2023/01/08 04:00:00;;;;;;;4.25;1.50;;;;;;;;;;5028317;28;20049;-73
2023/01/08 04:02:26;;;;;;;3.20;1.25;;;;;;;;;;5044625;28;20060;-73
2023/01/08 04:04:55;;;;;;;4.80;1.35;;;;;;;;;;5021650;28;20126;-72
2023/01/08 04:07:21;;;;;;;2.92;1.10;;;;;;;;;;5002211;28;20168;-72
2023/01/08 04:09:48;;;;;;;2.00;1.10;;;;;;;;;;5024221;28;20051;-71
2023/01/08 04:12:15;;;;;;;3.20;1.15;;;;;;;;;;5003464;28;20056;-72
2023/01/08 04:14:42;;;;;;;2.20;0.95;;;;;;;;;;5059512;28;20080;-74
2023/01/08 04:17:11;;;;;;;2.05;1.17;;;;;;;;;;5063610;28;20096;-73
2023/01/08 04:19:38;;;;;;;1.70;1.00;;;;;;;;;;5025728;28;20046;-74
2023/01/08 04:22:06;;;;;;;2.03;1.10;;;;;;;;;;5010545;28;20139;-74
2023/01/08 04:24:33;;;;;;;1.80;0.98;;;;;;;;;;5017150;28;20045;-73
2023/01/08 04:27:00;;;;;;;4.28;1.10;;;;;;;;;;5031189;28;20061;-73
2023/01/08 04:29:26;;;;;;;3.30;1.30;;;;;;;;;;5016699;28;20561;-71
2023/01/08 04:31:53;;;;;;;2.03;1.00;;;;;;;;;;5034206;28;20513;-71
2023/01/08 04:34:19;;;;;;;1.98;0.82;;;;;;;;;;5052249;28;20056;-72
2023/01/08 04:36:46;;;;;;;3.58;1.05;;;;;;;;;;5034303;28;20056;-72
2023/01/08 04:39:17;;;;;;;2.17;0.90;;;;;;;;;;5026166;28;20057;-72
2023/01/08 04:41:43;;;;;;;2.58;1.00;;;;;;;;;;5041791;28;20079;-71
2023/01/08 04:44:10;;;;;;;3.28;1.10;;;;;;;;;;5053782;28;20048;-71
2023/01/08 04:46:37;;;;;;;3.05;0.90;;;;;;;;;;5062174;28;20044;-71
2023/01/08 04:49:04;;;;;;;1.95;1.00;;;;;;;;;;5049406;28;20051;-73
2023/01/08 04:51:30;;;;;;;3.72;1.30;;;;;;;;;;5034662;28;20066;-71
2023/01/08 04:53:57;;;;;;;3.40;1.08;;;;;;;;;;5059481;28;20060;-73
2023/01/08 04:56:28;;;;;;;6.75;1.23;;;;;;;;;;5058315;28;20068;-71
2023/01/08 04:58:54;;;;;;;4.45;1.33;;;;;;;;;;5028103;28;20463;-71
2023/01/08 05:01:25;;;;;;;2.42;1.20;;;;;;;;;;5073000;28;20057;-73
2023/01/08 05:03:53;;;;;;;3.40;1.20;;;;;;;;;;5039925;28;20052;-71
2023/01/08 05:06:20;;;;;;;2.55;1.00;;;;;;;;;;5051181;28;20105;-74
2023/01/08 05:08:47;;;;;;;2.00;0.77;;;;;;;;;;5052534;28;20044;-72
2023/01/08 05:11:13;;;;;;;3.67;1.45;;;;;;;;;;5048223;28;20259;-74
2023/01/08 05:13:42;;;;;;;1.73;0.70;;;;;;;;;;5084185;28;20052;-72
2023/01/08 05:16:08;;;;;;;2.60;0.93;;;;;;;;;;5071533;28;20060;-71
2023/01/08 05:18:40;;;;;;;2.80;0.90;;;;;;;;;;5050446;28;20052;-70
2023/01/08 05:21:07;;;;;;;4.45;1.00;;;;;;;;;;5039136;28;20115;-72
2023/01/08 05:23:34;;;;;;;2.05;0.88;;;;;;;;;;5038655;28;20048;-73
2023/01/08 05:26:02;;;;;;;3.20;0.80;;;;;;;;;;5037406;28;20056;-73
2023/01/08 05:28:30;;;;;;;2.45;1.17;;;;;;;;;;5047881;28;20063;-73
2023/01/08 05:31:00;;;;;;;0.83;0.73;;;;;;;;;;5035391;28;20083;-70
2023/01/08 05:33:26;;;;;;;4.88;1.20;;;;;;;;;;5033916;28;20322;-72
2023/01/08 05:35:53;;;;;;;3.58;1.13;;;;;;;;;;5051626;28;20052;-71
2023/01/08 05:38:20;;;;;;;3.08;0.93;;;;;;;;;;5048104;28;20408;-73
2023/01/08 05:40:47;;;;;;;2.38;0.90;;;;;;;;;;5056320;28;20106;-73
2023/01/08 05:43:14;;;;;;;3.15;0.95;;;;;;;;;;5049325;28;20148;-72
2023/01/08 05:45:44;;;;;;;3.20;0.93;;;;;;;;;;5045215;28;20053;-74
2023/01/08 05:48:13;;;;;;;2.92;0.98;;;;;;;;;;5036905;28;20059;-72
2023/01/08 05:50:39;;;;;;;4.25;0.80;;;;;;;;;;5026328;28;20079;-71
2023/01/08 05:53:07;;;;;;;2.90;1.10;;;;;;;;;;5034435;28;20072;-73
2023/01/08 05:55:39;;;;;;;4.32;1.00;;;;;;;;;;5055497;28;20049;-73
2023/01/08 05:58:06;;;;;;;3.08;0.98;;;;;;;;;;5049088;28;20061;-72
2023/01/08 06:00:34;;;;;;;3.47;0.90;;;;;;;;;;5050981;28;20504;-73
2023/01/08 06:03:01;;;;;;;2.28;0.82;;;;;;;;;;5039206;28;20056;-73
2023/01/08 06:05:30;;;;;;;3.35;1.20;;;;;;;;;;5040436;28;20075;-71
2023/01/08 06:07:57;;;;;;;2.67;1.00;;;;;;;;;;5042314;28;20994;-73
2023/01/08 06:10:24;;;;;;;3.67;0.90;;;;;;;;;;5032254;28;20144;-73
2023/01/08 06:12:51;;;;;;;2.20;0.80;;;;;;;;;;5054274;28;20062;-72
2023/01/08 06:15:18;;;;;;;1.77;0.75;;;;;;;;;;5034607;28;20101;-73
2023/01/08 06:17:45;;;;;;;2.53;0.65;;;;;;;;;;5042026;28;20059;-74
2023/01/08 06:20:12;;;;;;;2.55;1.05;;;;;;;;;;5019740;28;20058;-71
2023/01/08 06:22:40;;;;;;;2.50;0.95;;;;;;;;;;5056600;28;20164;-72
2023/01/08 06:25:07;;;;;;;1.35;0.85;;;;;;;;;;5039857;28;20052;-73
2023/01/08 06:27:33;;;;;;;3.95;1.17;;;;;;;;;;5045248;28;20052;-73
2023/01/08 06:30:08;;;;;;;1.05;0.70;;;;;;;;;;5053931;28;20159;-71
2023/01/08 06:32:35;;;;;;;2.72;0.90;;;;;;;;;;5036557;28;20059;-72
2023/01/08 06:35:02;;;;;;;2.15;0.82;;;;;;;;;;5039270;28;20119;-70
2023/01/08 06:37:29;;;;;;;1.85;0.68;;;;;;;;;;5032254;28;20068;-73
2023/01/08 06:39:57;;;;;;;2.45;0.70;;;;;;;;;;5030991;28;20048;-72
2023/01/08 06:42:27;;;;;;;1.88;0.75;;;;;;;;;;5037256;28;20075;-73
2023/01/08 06:44:55;;;;;;;1.48;0.57;;;;;;;;;;5056683;28;20060;-73
2023/01/08 06:47:22;;;;;;;4.07;0.80;;;;;;;;;;5047364;28;20048;-72
2023/01/08 06:49:49;;;;;;;1.80;0.93;;;;;;;;;;5035841;28;20398;-72
2023/01/08 06:52:16;;;;;;;2.45;0.93;;;;;;;;;;5052825;28;20058;-71
2023/01/08 06:54:42;;;;;;;1.17;0.80;;;;;;;;;;5041784;28;20056;-73
2023/01/08 06:57:10;;;;;;;0.88;0.65;;;;;;;;;;5037760;28;20060;-71
2023/01/08 06:59:37;;;;;;;2.10;0.93;;;;;;;;;;4983480;28;20127;-73
2023/01/08 07:02:18;;;;;;;2.45;0.80;;;;;;;;;;5054557;28;20064;-73
2023/01/08 07:04:44;;;;;;;5.20;0.70;;;;;;;;;;5047846;28;20126;-71
2023/01/08 07:07:12;;;;;;;1.45;0.80;;;;;;;;;;5020610;28;20052;-73
2023/01/08 07:09:48;;;;;;;1.67;0.82;;;;;;;;;;5079938;28;21954;-72
2023/01/08 07:12:16;;;;;;;1.20;0.75;;;;;;;;;;5029025;28;20084;-71
2023/01/08 07:14:43;;;;;;;2.25;0.68;;;;;;;;;;5027329;28;20060;-71
2023/01/08 07:17:26;;;;;;;2.15;0.70;;;;;;;;;;5065140;28;20093;-72
2023/01/08 07:19:53;;;;;;;3.60;0.85;;;;;;;;;;5031277;28;20058;-71
2023/01/08 07:22:22;;;;;;;2.35;0.90;;;;;;;;;;5040592;28;20061;-73
2023/01/08 07:24:48;;;;;;;1.52;0.82;;;;;;;;;;5040865;28;20343;-72
2023/01/08 07:27:22;;;;;;;5.78;1.02;;;;;;;;;;5042424;28;20053;-72
2023/01/08 07:29:49;;;;;;;2.95;0.80;;;;;;;;;;4984279;28;20048;-73
2023/01/08 07:32:15;;;;;;;1.77;0.90;;;;;;;;;;5061533;28;20055;-72
2023/01/08 07:34:44;;;;;;;5.03;0.90;;;;;;;;;;5061630;28;20054;-71
2023/01/08 07:37:20;;;;;;;1.13;0.70;;;;;;;;;;5052918;28;20056;-72
2023/01/08 07:39:51;;;;;;;1.13;0.63;;;;;;;;;;5039908;28;20051;-70
2023/01/08 07:42:20;;;;;;;4.13;0.90;;;;;;;;;;5076073;28;20056;-72
2023/01/08 07:44:49;;;;;;;3.40;0.80;;;;;;;;;;5043739;28;20060;-73
2023/01/08 07:49:56;;;;;;;3.22;0.80;;;;;;;;;;5014459;28;20148;-72
2023/01/08 07:52:23;;;;;;;2.33;0.80;;;;;;;;;;5011255;28;20084;-73
2023/01/08 07:54:50;;;;;;;2.10;0.80;;;;;;;;;;5046330;28;20048;-71
2023/01/08 07:57:21;;;;;;;2.60;0.77;;;;;;;;;;5034307;28;20048;-74
2023/01/08 07:59:51;;;;;;;2.35;0.90;;;;;;;;;;5048627;28;20064;-74
2023/01/08 08:02:18;;;;;;;3.92;0.80;;;;;;;;;;5036942;28;20044;-72
2023/01/08 08:04:45;;;;;;;2.95;1.13;;;;;;;;;;5029023;28;20136;-74
2023/01/08 08:07:16;;;;;;;2.30;0.90;;;;;;;;;;5054250;28;20155;-73
2023/01/08 08:09:42;;;;;;;2.17;0.60;;;;;;;;;;5021257;28;20055;-71
2023/01/08 08:12:09;;;;;;;2.47;0.73;;;;;;;;;;5036181;28;20107;-74
2023/01/08 08:14:36;;;;;;;3.67;0.55;;;;;;;;;;5068442;28;20079;-71
2023/01/08 08:17:04;;;;;;;2.20;0.80;;;;;;;;;;5056743;28;20063;-70
2023/01/08 08:19:30;;;;;;;2.08;0.70;;;;;;;;;;5011943;28;20054;-72
2023/01/08 08:21:57;;;;;;;2.50;0.82;;;;;;;;;;5024083;28;20060;-73
2023/01/08 08:24:24;;;;;;;2.58;0.82;;;;;;;;;;5039150;27;20059;-72
2023/01/08 08:26:53;;;;;;;2.67;1.10;;;;;;;;;;5045186;28;20087;-73
2023/01/08 08:32:13;;;;;;;3.20;0.88;;;;;;;;;;5048610;28;20052;-71
2023/01/08 08:34:43;;;;;;;7.85;1.20;;;;;;;;;;5052405;28;20083;-73
2023/01/08 08:37:09;;;;;;;4.45;1.27;;;;;;;;;;5043410;28;20115;-71
2023/01/08 08:39:38;;;;;;;2.50;0.93;;;;;;;;;;5037594;27;20383;-72
2023/01/08 08:42:05;;;;;;;2.15;0.90;;;;;;;;;;5074378;28;20043;-72
2023/01/08 08:44:31;;;;;;;2.25;1.08;;;;;;;;;;5029388;28;20053;-73
2023/01/08 08:50:02;;;;;;;5.68;1.02;;;;;;;;;;4978508;28;20046;-73
2023/01/08 08:55:34;;;;;;;5.25;1.13;;;;;;;;;;4928633;28;20181;-71
2023/01/08 09:01:14;;;;;;;4.85;1.40;;;;;;;;;;4967483;28;20160;-71
2023/01/08 09:03:50;;;;;;;4.90;1.38;;;;;;;;;;5038608;28;21788;-72
2023/01/08 09:06:23;;;;;;;5.68;1.35;;;;;;;;;;5059907;28;20052;-71
2023/01/08 09:08:51;;;;;;;3.55;1.17;;;;;;;;;;5037726;28;20080;-71
2023/01/08 09:11:18;;;;;;;5.93;1.63;;;;;;;;;;5027266;28;20055;-73
2023/01/08 09:14:06;;;;;;;4.17;1.37;;;;;;;;;;5040483;28;20056;-73
2023/01/08 09:16:36;;;;;;;3.55;1.20;;;;;;;;;;5044392;28;20372;-74
2023/01/08 09:19:03;;;;;;;6.30;1.50;;;;;;;;;;5020060;28;20130;-71
2023/01/08 09:21:33;;;;;;;4.28;1.65;;;;;;;;;;5029498;28;20056;-73
2023/01/08 09:24:00;;;;;;;5.18;1.45;;;;;;;;;;5032197;28;20184;-71
2023/01/08 09:26:29;;;;;;;3.55;1.23;;;;;;;;;;5039556;28;20079;-73
2023/01/08 09:28:56;;;;;;;6.65;1.50;;;;;;;;;;5044474;28;20120;-73
2023/01/08 09:31:23;;;;;;;4.45;1.20;;;;;;;;;;5013081;28;20047;-72
2023/01/08 09:33:53;;;;;;;9.45;1.75;;;;;;;;;;5009410;28;20059;-72
2023/01/08 09:36:20;;;;;;;4.78;1.50;;;;;;;;;;5044357;28;20052;-70
2023/01/08 09:38:58;;;;;;;5.15;1.40;;;;;;;;;;5026612;28;20082;-74
2023/01/08 09:42:00;;;;;;;7.05;1.60;;;;;;;;;;5026572;28;20409;-73
2023/01/08 09:44:40;;;;;;;3.10;1.30;;;;;;;;;;5063704;28;20159;-72
2023/01/08 09:47:17;;;;;;;3.78;1.50;;;;;;;;;;5069512;28;20048;-71
2023/01/08 09:49:47;;;;;;;4.57;1.30;;;;;;;;;;5048674;28;20056;-72
2023/01/08 09:52:19;;;;;;;6.57;1.35;;;;;;;;;;5014023;28;20064;-74
2023/01/08 09:54:57;;;;;;;5.03;1.50;;;;;;;;;;4982326;28;20057;-73
2023/01/08 11:23:21;;;;;;;7.18;1.42;;;;;;;;;;6006710;22;4078477;-73
2023/01/08 11:26:06;;;;;;;6.88;1.65;;;;;;;;;;6018462;23;20031;-76
2023/01/08 14:58:51;;;;;;;;;;;;;;;;;;;;;
2023/01/08 15:01:30;;;;;;;0.90;0.50;;;;;;;;;;6152000;23;20020;-71
2023/01/08 15:04:24;;;;;;;;;;;;;;;;;;;;;
2023/01/08 15:16:21;;;;;;;2.35;0.95;;;;;;;;;;6077654;23;20043;-72
2023/01/08 15:19:21;;;;;;;1.75;0.70;;;;;;;;;;6100034;23;20039;-71
2023/01/08 15:22:05;;;;;;;2.72;0.65;;;;;;;;;;6115096;23;20028;-71
2023/01/08 15:24:39;;;;;;;1.83;0.70;;;;;;;;;;6132693;23;20028;-71
2023/01/08 15:27:52;;;;;;;2.53;0.60;;;;;;;;;;6086640;23;20032;-71
2023/01/08 15:30:27;;;;;;;7.43;0.63;;;;;;;;;;6124090;23;20021;-70
2023/01/08 15:33:05;;;;;;;2.05;0.80;;;;;;;;;;6111861;23;20024;-71
2023/01/08 15:35:33;;;;;;;2.58;0.70;;;;;;;;;;6117858;23;20136;-71
2023/01/08 15:38:00;;;;;;;0.95;0.50;;;;;;;;;;6139835;23;20025;-70
2023/01/08 15:40:26;;;;;;;4.63;0.73;;;;;;;;;;6144311;23;20020;-71
2023/01/08 15:43:16;;;;;;;1.95;0.60;;;;;;;;;;6087495;23;20037;-71
2023/01/08 15:45:46;;;;;;;5.35;0.95;;;;;;;;;;6143182;23;20021;-70
2023/01/08 15:48:18;;;;;;;3.47;0.60;;;;;;;;;;6139296;23;20029;-71
2023/01/08 15:50:49;;;;;;;1.98;0.65;;;;;;;;;;6131317;23;20059;-71
2023/01/08 15:53:22;;;;;;;2.72;0.85;;;;;;;;;;6142750;23;20124;-72
2023/01/08 15:59:10;;;;;;;1.45;0.65;;;;;;;;;;6077308;23;20092;-71
2023/01/08 16:01:44;;;;;;;2.65;0.70;;;;;;;;;;6070131;23;20048;-71
2023/01/08 16:04:12;;;;;;;2.35;0.77;;;;;;;;;;6079981;23;20021;-71
2023/01/08 16:06:42;;;;;;;4.53;1.10;;;;;;;;;;6098030;23;20030;-71
2023/01/08 16:09:10;;;;;;;3.53;1.23;;;;;;;;;;6014994;23;20026;-71
2023/01/08 16:11:48;;;;;;;3.50;1.10;;;;;;;;;;6001746;23;20030;-71
2023/01/08 16:35:31;;;;;;;3.33;1.13;;;;;;;;;;5470306;22;17676622;-70
2023/01/08 16:40:49;;;;;;;3.80;1.35;;;;;;;;;;6081522;23;20061;-73
2023/01/08 16:43:19;;;;;;;2.67;0.98;;;;;;;;;;6095871;23;20026;-70
2023/01/08 16:46:03;;;;;;;3.83;1.17;;;;;;;;;;6084634;23;20086;-69
2023/01/08 16:48:51;;;;;;;3.85;1.15;;;;;;;;;;6110692;23;20036;-70
2023/01/08 16:51:24;;;;;;;2.65;1.05;;;;;;;;;;6096631;23;20025;-71
2023/01/08 16:54:01;;;;;;;2.63;0.85;;;;;;;;;;6077514;23;20025;-70
2023/01/08 16:56:48;;;;;;;;;;;;;;;;;;;;;
2023/01/08 16:59:25;;;;;;;;;;;;;;;;;;;;;
2023/01/08 17:01:56;;;;;;;3.83;1.30;;;;;;;;;;6135074;23;20094;-70
2023/01/08 17:04:43;;;;;;;5.90;1.10;;;;;;;;;;6107929;23;20034;-72
2023/01/08 17:07:25;;;;;;;3.17;1.20;;;;;;;;;;6129549;23;20024;-70
2023/01/08 17:13:37;;;;;;;6.15;1.10;;;;;;;;;;5992619;23;20030;-71
2023/01/08 17:19:40;;;;;;;3.83;1.20;;;;;;;;;;6089670;23;20034;-74
2023/01/08 17:25:50;;;;;;;3.70;1.00;;;;;;;;;;6025361;23;20089;-72
2023/01/08 17:28:19;;;;;;;3.22;1.00;;;;;;;;;;6033877;23;20056;-71
2023/01/08 17:31:02;;;;;;;5.28;1.17;;;;;;;;;;6019641;23;20034;-72
2023/01/08 17:33:43;;;;;;;3.72;1.17;;;;;;;;;;5982880;23;20022;-72
2023/01/08 17:40:08;;;;;;;2.70;1.02;;;;;;;;;;6048132;23;20075;-71
2023/01/08 17:42:34;;;;;;;6.93;1.17;;;;;;;;;;6060150;23;20026;-71
2023/01/08 17:45:11;;;;;;;5.80;1.27;;;;;;;;;;6036237;23;20026;-71
2023/01/08 17:47:38;;;;;;;4.90;1.58;;;;;;;;;;6011003;23;20249;-71
2023/01/08 17:50:42;;;;;;;2.17;0.80;;;;;;;;;;6018368;23;20178;-71
2023/01/08 17:53:09;;;;;;;3.53;1.17;;;;;;;;;;6042905;23;20089;-72
2023/01/08 17:56:09;;;;;;;1.88;0.80;;;;;;;;;;6058980;23;20041;-71
2023/01/08 18:01:46;;;;;;;4.00;1.10;;;;;;;;;;6070268;23;20113;-71
2023/01/08 18:04:36;;;;;;;3.17;1.27;;;;;;;;;;6122366;23;20025;-70
2023/01/08 18:07:27;;;;;;;3.30;1.13;;;;;;;;;;6113510;23;20171;-72
2023/01/08 18:10:05;;;;;;;4.03;1.20;;;;;;;;;;6137333;23;20064;-72
2023/01/08 18:12:51;;;;;;;3.92;1.00;;;;;;;;;;6109656;23;20072;-72
2023/01/08 18:21:19;;;;;;;3.88;1.33;;;;;;;;;;6076247;23;20040;-72
2023/01/08 18:24:00;;;;;;;4.15;1.30;;;;;;;;;;6011210;23;20048;-71
2023/01/08 18:26:33;;;;;;;3.70;1.23;;;;;;;;;;6041723;23;20032;-71
2023/01/08 18:29:05;;;;;;;3.47;1.20;;;;;;;;;;6082797;23;20084;-71
2023/01/08 18:31:46;;;;;;;2.92;1.20;;;;;;;;;;6085845;23;20312;-72
2023/01/08 18:40:23;;;;;;;;;;;;;;;;;;;;;
2023/01/08 18:43:04;;;;;;;2.28;1.05;;;;;;;;;;6033092;23;20028;-72
2023/01/08 18:46:00;;;;;;;3.65;1.10;;;;;;;;;;6096451;23;20421;-71
2023/01/08 18:48:31;;;;;;;2.53;0.90;;;;;;;;;;6126852;23;20024;-71
2023/01/08 18:54:34;;;;;;;4.95;1.30;;;;;;;;;;6113049;23;20103;-75
2023/01/08 18:57:14;;;;;;;4.82;1.67;;;;;;;;;;6136017;23;20028;-72
2023/01/08 19:12:57;;;;;;;3.63;1.30;;;;;;;;;;6141347;23;20107;-72
2023/01/08 19:15:34;;;;;;;5.43;1.20;;;;;;;;;;6092121;23;20024;-71
2023/01/08 19:21:42;;;;;;;2.38;1.20;;;;;;;;;;6123340;23;20460;-72
2023/01/08 19:27:37;;;;;;;3.35;1.15;;;;;;;;;;6080702;23;20043;-72
2023/01/08 19:30:31;;;;;;;3.05;1.27;;;;;;;;;;6127461;23;20123;-73
2023/01/08 19:33:20;;;;;;;4.60;1.45;;;;;;;;;;6094414;23;20029;-72
2023/01/08 19:36:11;;;;;;;2.25;1.10;;;;;;;;;;6101780;23;20037;-71
2023/01/08 19:44:42;;;;;;;2.88;1.00;;;;;;;;;;6086465;23;20209;-73
2023/01/08 19:47:17;;;;;;;2.55;1.10;;;;;;;;;;6096348;23;20025;-73
2023/01/08 19:49:55;;;;;;;3.50;0.98;;;;;;;;;;6078708;23;20025;-74
2023/01/08 19:59:40;;;;;;;2.15;0.95;;;;;;;;;;6130715;23;20025;-72
2023/01/08 20:02:21;;;;;;;2.65;1.13;;;;;;;;;;6092107;23;20119;-71
2023/01/08 20:04:48;;;;;;;3.33;1.10;;;;;;;;;;5987186;23;20029;-73
2023/01/08 20:07:58;;;;;;;3.75;1.10;;;;;;;;;;6054517;23;20049;-74
2023/01/08 20:15:01;;;;;;;4.68;1.20;;;;;;;;;;5979741;23;20099;-72
2023/01/08 20:34:43;;;;;;;6.57;1.05;;;;;;;;;;5913067;23;20053;-71
2023/01/08 20:40:05;;;;;;;4.32;1.13;;;;;;;;;;6047387;23;20030;-73
2023/01/08 20:42:56;;;;;;;3.70;0.90;;;;;;;;;;6026562;23;20107;-71
2023/01/08 20:45:54;;;;;;;4.85;1.10;;;;;;;;;;5970961;23;20051;-73
2023/01/08 20:48:43;;;;;;;4.53;1.30;;;;;;;;;;5994013;23;20208;-73
2023/01/08 20:51:40;;;;;;;4.68;1.00;;;;;;;;;;5983595;23;20200;-71
2023/01/08 20:54:26;;;;;;;1.77;0.70;;;;;;;;;;5968672;23;20025;-71
2023/01/08 20:57:05;;;;;;;2.97;1.05;;;;;;;;;;6154659;23;20235;-71
2023/01/08 21:05:23;;;;;;;3.08;1.00;;;;;;;;;;6114423;23;20035;-71
2023/01/08 21:07:57;;;;;;;2.25;0.90;;;;;;;;;;6166620;23;20047;-71
2023/01/08 21:10:28;;;;;;;2.92;0.93;;;;;;;;;;6146093;23;20029;-72
2023/01/08 21:12:57;;;;;;;4.22;1.10;;;;;;;;;;6166360;23;20083;-71
2023/01/08 21:18:28;;;;;;;4.75;1.27;;;;;;;;;;6137163;23;20035;-71
2023/01/08 21:21:01;;;;;;;4.40;1.15;;;;;;;;;;6169363;23;20021;-72
2023/01/08 21:23:35;;;;;;;3.67;1.00;;;;;;;;;;6092161;23;20029;-71
2023/01/08 21:29:07;;;;;;;;;;;;;;;;;;;;;
2023/01/08 21:32:24;;;;;;;4.05;1.00;;;;;;;;;;6127663;23;20031;-71
2023/01/08 21:35:37;;;;;;;3.00;1.13;;;;;;;;;;5859223;23;20045;-71
2023/01/08 21:38:30;;;;;;;4.95;1.20;;;;;;;;;;5919496;23;20091;-72
